createdAt,value
2023-02-07T00:01:41.368Z,10.57
2023-02-07T00:04:09.786Z,12.07
2023-02-07T00:06:38.640Z,12.45
2023-02-07T00:09:10.082Z,10.35
2023-02-07T00:11:40.901Z,10.07
2023-02-07T00:14:11.463Z,11.50
2023-02-07T00:16:40.166Z,13.38
2023-02-07T00:19:09.141Z,11.30
2023-02-07T00:21:38.126Z,11.05
2023-02-07T00:24:08.535Z,11.85
2023-02-07T00:26:37.111Z,11.10
2023-02-07T00:29:06.517Z,11.23
2023-02-07T00:31:36.753Z,10.77
2023-02-07T00:34:08.344Z,10.65
2023-02-07T00:36:38.678Z,9.82
2023-02-07T00:39:13.882Z,12.07
2023-02-07T00:41:42.980Z,10.43
2023-02-07T00:44:12.599Z,12.38
2023-02-07T00:46:41.086Z,11.07
2023-02-07T00:49:10.019Z,13.02
2023-02-07T00:51:38.966Z,13.43
2023-02-07T00:54:09.541Z,10.73
2023-02-07T00:56:37.996Z,13.07
2023-02-07T00:59:06.487Z,15.80
2023-02-07T01:01:37.265Z,13.05
2023-02-07T01:04:06.442Z,15.43
2023-02-07T01:06:37.089Z,14.15
2023-02-07T01:09:08.617Z,16.10
2023-02-07T01:11:37.060Z,18.25
2023-02-07T01:14:05.349Z,13.80
2023-02-07T01:16:35.810Z,11.43
2023-02-07T01:19:06.562Z,13.07
2023-02-07T01:21:35.347Z,14.13
2023-02-07T01:24:05.517Z,15.10
2023-02-07T01:26:38.066Z,13.40
2023-02-07T01:29:07.024Z,13.38
2023-02-07T01:31:36.943Z,14.23
2023-02-07T01:34:05.915Z,12.27
2023-02-07T01:36:34.313Z,16.27
2023-02-07T01:39:03.876Z,17.65
2023-02-07T01:41:37.236Z,17.50
2023-02-07T01:44:08.906Z,15.60
2023-02-07T01:46:38.286Z,21.25
2023-02-07T01:49:13.509Z,15.80
2023-02-07T01:51:48.544Z,17.45
2023-02-07T01:54:18.389Z,18.48
2023-02-07T01:56:55.209Z,15.05
2023-02-07T01:59:25.720Z,19.23
2023-02-07T02:01:54.171Z,17.27
2023-02-07T02:04:22.960Z,16.98
2023-02-07T02:06:51.695Z,18.65
2023-02-07T02:09:19.994Z,16.15
2023-02-07T02:12:13.017Z,13.68
2023-02-07T02:15:09.025Z,16.63
2023-02-07T02:17:54.995Z,18.10
2023-02-07T02:21:16.710Z,16.00
2023-02-07T02:24:17.581Z,17.85
2023-02-07T02:26:59.872Z,14.32
2023-02-07T02:30:33.623Z,14.70
2023-02-07T02:33:32.227Z,15.65
2023-02-07T02:36:12.013Z,18.80
2023-02-07T02:38:47.148Z,16.70
2023-02-07T02:41:20.563Z,16.52
2023-02-07T02:43:55.667Z,19.42
2023-02-07T02:46:26.408Z,19.20
2023-02-07T02:48:59.507Z,15.88
2023-02-07T02:51:30.437Z,18.48
2023-02-07T02:54:01.135Z,19.13
2023-02-07T02:57:03.905Z,22.60
2023-02-07T02:59:56.138Z,18.10
2023-02-07T03:02:34.308Z,19.60
2023-02-07T03:05:29.631Z,19.98
2023-02-07T03:08:11.766Z,19.77
2023-02-07T03:10:50.466Z,19.13
2023-02-07T03:13:24.768Z,19.42
2023-02-07T03:16:06.051Z,21.20
2023-02-07T03:18:46.461Z,21.98
2023-02-07T03:21:22.261Z,22.35
2023-02-07T03:23:53.707Z,19.85
2023-02-07T03:26:25.165Z,21.77
2023-02-07T03:28:57.678Z,19.17
2023-02-07T03:31:28.764Z,21.13
2023-02-07T03:34:04.432Z,18.70
2023-02-07T03:36:41.623Z,17.10
2023-02-07T03:39:10.390Z,21.67
2023-02-07T03:41:45.883Z,17.48
2023-02-07T03:44:18.152Z,17.88
2023-02-07T03:46:46.664Z,26.08
2023-02-07T03:49:17.570Z,22.20
2023-02-07T03:51:47.796Z,18.10
2023-02-07T03:54:16.519Z,20.13
2023-02-07T03:56:45.380Z,21.33
2023-02-07T03:59:14.064Z,18.38
2023-02-07T04:01:43.367Z,21.55
2023-02-07T04:04:12.904Z,18.00
2023-02-07T04:06:41.768Z,18.50
2023-02-07T04:09:12.013Z,20.20
2023-02-07T04:11:40.710Z,21.48
2023-02-07T04:14:09.159Z,19.45
2023-02-07T04:16:37.570Z,20.10
2023-02-07T04:19:06.045Z,19.55
2023-02-07T04:21:35.048Z,20.30
2023-02-07T04:24:03.821Z,20.95
2023-02-07T04:26:33.529Z,25.15
2023-02-07T04:29:02.556Z,18.95
2023-02-07T04:31:31.037Z,19.33
2023-02-07T04:33:59.415Z,22.10
2023-02-07T04:36:29.555Z,29.48
2023-02-07T04:38:58.271Z,23.33
2023-02-07T04:41:26.594Z,19.23
2023-02-07T04:43:57.068Z,29.67
2023-02-07T04:46:25.570Z,24.08
2023-02-07T04:48:54.037Z,20.70
2023-02-07T04:51:22.398Z,21.70
2023-02-07T04:53:50.726Z,19.95
2023-02-07T04:56:19.058Z,23.45
2023-02-07T04:58:47.931Z,21.63
2023-02-07T05:01:18.069Z,18.27
2023-02-07T05:03:46.474Z,22.02
2023-02-07T05:06:17.748Z,19.60
2023-02-07T05:08:46.195Z,21.55
2023-02-07T05:11:15.185Z,20.17
2023-02-07T05:13:44.040Z,18.73
2023-02-07T05:16:12.396Z,22.88
2023-02-07T05:18:42.325Z,29.90
2023-02-07T05:21:11.411Z,21.70
2023-02-07T05:23:39.764Z,17.92
2023-02-07T05:26:08.127Z,19.65
2023-02-07T05:28:36.480Z,20.00
2023-02-07T05:31:05.137Z,20.35
2023-02-07T05:33:32.515Z,17.58
2023-02-07T05:36:03.036Z,19.90
2023-02-07T05:38:31.927Z,19.00
2023-02-07T05:41:00.268Z,22.25
2023-02-07T05:43:28.870Z,18.52
2023-02-07T05:45:57.297Z,20.75
2023-02-07T05:48:25.690Z,25.33
2023-02-07T05:50:54.145Z,24.00
2023-02-07T05:53:23.925Z,23.65
2023-02-07T05:55:53.421Z,21.58
2023-02-07T05:58:21.723Z,19.60
2023-02-07T06:00:50.070Z,29.45
2023-02-07T06:03:18.450Z,20.73
2023-02-07T06:05:46.780Z,23.73
2023-02-07T06:08:15.283Z,21.33
2023-02-07T06:10:44.987Z,24.05
2023-02-07T06:13:13.510Z,23.13
2023-02-07T06:15:42.162Z,17.33
2023-02-07T06:18:10.766Z,15.60
2023-02-07T06:20:39.205Z,19.98
2023-02-07T06:23:07.780Z,24.25
2023-02-07T06:25:36.403Z,21.27
2023-02-07T06:28:06.645Z,19.63
2023-02-07T06:30:35.097Z,17.95
2023-02-07T06:33:03.521Z,18.92
2023-02-07T06:35:31.842Z,20.52
2023-02-07T06:38:00.324Z,19.85
2023-02-07T06:40:28.711Z,18.92
2023-02-07T06:42:57.200Z,22.15
2023-02-07T06:45:26.887Z,25.13
2023-02-07T06:47:55.435Z,22.00
2023-02-07T06:50:23.911Z,20.33
2023-02-07T06:52:52.679Z,18.65
2023-02-07T06:55:20.918Z,18.52
2023-02-07T06:57:49.419Z,21.95
2023-02-07T07:00:20.660Z,17.67
2023-02-07T07:02:50.638Z,16.75
2023-02-07T07:05:19.394Z,20.55
2023-02-07T07:07:47.773Z,19.35
2023-02-07T07:10:16.700Z,19.35
2023-02-07T07:12:47.367Z,19.30
2023-02-07T07:15:16.380Z,18.95
2023-02-07T07:17:44.934Z,21.60
2023-02-07T07:20:14.799Z,29.20
2023-02-07T07:22:43.497Z,23.30
2023-02-07T07:25:12.497Z,16.70
2023-02-07T07:27:40.897Z,16.83
2023-02-07T07:30:11.437Z,14.75
2023-02-07T07:32:40.125Z,14.93
2023-02-07T07:35:09.400Z,15.70
2023-02-07T07:37:39.093Z,18.08
2023-02-07T07:40:08.906Z,15.35
2023-02-07T07:42:37.478Z,14.98
2023-02-07T07:45:22.454Z,15.07
2023-02-07T07:47:51.064Z,21.52
2023-02-07T07:50:19.903Z,17.30
2023-02-07T07:52:49.762Z,16.15
2023-02-07T07:55:18.263Z,15.40
2023-02-07T07:57:46.803Z,19.13
2023-02-07T08:00:16.237Z,18.65
2023-02-07T08:02:44.917Z,12.70
2023-02-07T08:05:13.948Z,16.80
2023-02-07T08:07:42.430Z,22.45
2023-02-07T08:10:12.193Z,17.85
2023-02-07T08:12:42.652Z,20.13
2023-02-07T08:15:13.831Z,16.85
2023-02-07T08:17:42.460Z,17.80
2023-02-07T08:20:12.556Z,17.40
2023-02-07T08:22:41.035Z,18.13
2023-02-07T08:25:11.416Z,17.88
2023-02-07T08:27:40.470Z,16.10
2023-02-07T08:30:12.013Z,15.57
2023-02-07T08:32:41.012Z,17.75
2023-02-07T08:35:10.378Z,17.65
2023-02-07T08:37:39.676Z,16.17
2023-02-07T08:40:11.234Z,14.80
2023-02-07T08:42:39.627Z,20.67
2023-02-07T08:45:09.514Z,15.65
2023-02-07T08:47:38.063Z,18.55
2023-02-07T08:50:08.103Z,16.25
2023-02-07T08:52:36.667Z,16.65
2023-02-07T08:55:05.712Z,16.77
2023-02-07T08:57:35.558Z,23.60
2023-02-07T09:00:05.332Z,16.25
2023-02-07T09:02:34.130Z,14.90
2023-02-07T09:05:03.117Z,15.38
2023-02-07T09:07:31.657Z,14.75
2023-02-07T09:09:59.890Z,13.25
2023-02-07T09:12:28.224Z,16.38
2023-02-07T09:14:58.190Z,13.85
2023-02-07T09:17:26.854Z,14.20
2023-02-07T09:19:55.392Z,13.80
2023-02-07T09:22:23.824Z,15.00
2023-02-07T09:24:52.182Z,17.20
2023-02-07T09:27:20.614Z,17.60
2023-02-07T09:29:48.904Z,14.95
2023-02-07T09:32:18.758Z,14.05
2023-02-07T09:34:47.191Z,16.85
2023-02-07T09:37:15.720Z,14.98
2023-02-07T09:39:44.627Z,18.45
2023-02-07T09:42:24.243Z,16.58
2023-02-07T09:45:00.949Z,18.05
2023-02-07T09:47:32.674Z,17.70
2023-02-07T09:50:05.049Z,15.48
2023-02-07T09:52:38.856Z,13.98
2023-02-07T09:55:16.548Z,13.60
2023-02-07T09:57:49.412Z,17.15
2023-02-07T10:00:24.874Z,18.73
2023-02-07T10:03:00.060Z,16.85
2023-02-07T10:05:40.284Z,16.30
2023-02-07T10:08:12.893Z,20.50
2023-02-07T10:10:46.259Z,20.80
2023-02-07T10:13:31.065Z,21.23
2023-02-07T10:16:21.059Z,14.93
2023-02-07T10:18:56.808Z,18.17
2023-02-07T10:21:34.765Z,17.95
2023-02-07T10:24:33.052Z,18.20
2023-02-07T10:27:10.388Z,18.52
2023-02-07T10:29:57.768Z,18.58
2023-02-07T10:32:31.381Z,18.80
2023-02-07T10:35:06.387Z,15.57
2023-02-07T10:40:15.616Z,17.85
2023-02-07T10:42:49.529Z,19.08
2023-02-07T10:45:19.712Z,20.33
2023-02-07T10:47:48.352Z,14.88
2023-02-07T10:50:29.828Z,15.25
2023-02-07T10:53:00.713Z,17.05
2023-02-07T10:55:40.113Z,16.60
2023-02-07T10:58:22.874Z,15.30
2023-02-07T11:00:55.013Z,12.98
2023-02-07T11:03:25.370Z,27.48
2023-02-07T11:05:59.711Z,18.65
2023-02-07T11:08:30.612Z,17.27
2023-02-07T11:11:01.436Z,19.38
2023-02-07T11:13:32.658Z,16.70
2023-02-07T11:16:06.145Z,18.77
2023-02-07T11:18:45.522Z,14.13
2023-02-07T11:21:32.151Z,14.63
2023-02-07T11:24:05.543Z,13.60
2023-02-07T11:26:36.792Z,17.73
2023-02-07T11:29:15.307Z,19.23
2023-02-07T11:31:46.163Z,13.75
2023-02-07T11:34:45.850Z,16.05
2023-02-07T11:37:27.081Z,13.77
2023-02-07T11:39:57.845Z,19.83
2023-02-07T11:42:32.301Z,18.25
2023-02-07T11:45:06.137Z,15.93
2023-02-07T11:47:38.174Z,15.50
2023-02-07T11:50:08.838Z,18.55
2023-02-07T11:52:40.909Z,14.68
2023-02-07T11:55:19.487Z,14.45
2023-02-07T11:57:48.372Z,15.77
2023-02-07T12:00:25.779Z,15.68
2023-02-07T12:03:02.909Z,22.83
2023-02-07T12:05:36.692Z,14.80
2023-02-07T12:08:13.584Z,11.95
2023-02-07T12:10:47.014Z,14.73
2023-02-07T12:13:19.859Z,12.73
2023-02-07T12:15:52.917Z,14.57
2023-02-07T12:18:30.650Z,12.52
2023-02-07T12:21:06.135Z,12.18
2023-02-07T12:23:46.972Z,13.10
2023-02-07T12:26:25.144Z,19.20
2023-02-07T12:29:13.843Z,12.32
2023-02-07T12:31:52.562Z,13.15
2023-02-07T12:34:29.210Z,14.00
2023-02-07T12:37:05.561Z,13.88
2023-02-07T12:39:43.172Z,13.32
2023-02-07T12:42:36.890Z,12.40
2023-02-07T12:45:07.157Z,15.00
2023-02-07T12:47:45.760Z,11.40
2023-02-07T12:50:31.414Z,12.25
2023-02-07T12:53:12.346Z,10.07
2023-02-07T12:55:55.849Z,15.98
2023-02-07T12:58:49.758Z,11.25
2023-02-07T13:01:25.871Z,9.85
2023-02-07T13:04:33.974Z,8.85
2023-02-07T13:07:10.602Z,11.05
2023-02-07T13:09:46.412Z,9.20
2023-02-07T13:12:20.860Z,10.43
2023-02-07T13:15:06.844Z,14.32
2023-02-07T13:17:42.715Z,10.63
2023-02-07T13:20:31.251Z,9.90
2023-02-07T13:23:02.758Z,11.02
2023-02-07T13:25:33.430Z,8.32
2023-02-07T13:28:08.159Z,11.30
2023-02-07T13:30:37.736Z,12.40
2023-02-07T13:33:14.049Z,10.32
2023-02-07T13:35:43.058Z,9.75
2023-02-07T13:38:24.688Z,9.80
2023-02-07T13:41:03.049Z,9.82
2023-02-07T13:43:50.867Z,10.63
2023-02-07T13:46:47.634Z,8.80
2023-02-07T13:49:23.313Z,7.45
2023-02-07T13:52:00.623Z,10.10
2023-02-07T13:54:41.217Z,8.95
2023-02-07T13:57:39.784Z,8.20
2023-02-07T14:00:19.388Z,9.82
2023-02-07T14:02:52.098Z,12.52
2023-02-07T14:05:28.142Z,8.60
2023-02-07T14:08:01.115Z,16.10
2023-02-07T14:10:51.959Z,12.38
2023-02-07T14:13:30.623Z,6.75
2023-02-07T14:16:12.064Z,9.18
2023-02-07T14:18:47.278Z,10.15
2023-02-07T14:21:33.407Z,6.93
2023-02-07T14:24:32.309Z,11.45
2023-02-07T14:27:05.958Z,7.07
2023-02-07T14:29:57.316Z,12.75
2023-02-07T14:33:11.730Z,9.10
2023-02-07T14:36:04.164Z,10.00
2023-02-07T14:38:38.022Z,8.73
2023-02-07T14:41:11.789Z,8.75
2023-02-07T14:44:03.304Z,7.35
2023-02-07T14:46:40.264Z,14.20
2023-02-07T14:49:18.121Z,8.85
2023-02-07T14:51:49.824Z,10.82
2023-02-07T14:54:26.673Z,10.50
2023-02-07T14:57:06.107Z,13.45
2023-02-07T14:59:40.380Z,8.45
2023-02-07T15:02:31.628Z,8.63
2023-02-07T15:05:21.181Z,6.40
2023-02-07T15:07:56.571Z,7.28
2023-02-07T15:10:29.070Z,10.50
2023-02-07T15:12:58.124Z,8.13
2023-02-07T15:15:30.623Z,6.75
2023-02-07T15:18:02.326Z,8.15
2023-02-07T15:20:34.416Z,7.57
2023-02-07T15:23:07.277Z,8.07
2023-02-07T15:25:36.575Z,9.05
2023-02-07T15:28:12.968Z,8.15
2023-02-07T15:31:01.052Z,10.85
2023-02-07T15:33:36.593Z,10.93
2023-02-07T15:36:28.804Z,10.63
2023-02-07T15:39:00.995Z,8.43
2023-02-07T15:41:29.938Z,8.82
2023-02-07T15:44:01.453Z,8.02
2023-02-07T15:46:49.413Z,8.30
2023-02-07T15:49:28.569Z,11.23
2023-02-07T15:52:05.054Z,9.52
2023-02-07T15:54:39.583Z,7.85
2023-02-07T15:57:17.988Z,6.28
2023-02-07T15:59:46.225Z,7.10
2023-02-07T16:02:26.084Z,8.63
2023-02-07T16:04:54.459Z,7.40
2023-02-07T16:07:26.268Z,6.53
2023-02-07T16:09:54.649Z,7.57
2023-02-07T16:12:32.424Z,11.07
2023-02-07T16:15:02.743Z,7.78
2023-02-07T16:17:42.343Z,8.43
2023-02-07T16:20:15.668Z,8.15
2023-02-07T16:22:46.320Z,9.57
2023-02-07T16:25:19.274Z,8.95
2023-02-07T16:27:50.214Z,9.15
2023-02-07T16:30:22.287Z,11.27
2023-02-07T16:32:50.961Z,12.85
2023-02-07T16:35:22.207Z,8.57
2023-02-07T16:37:52.910Z,9.00
2023-02-07T16:40:22.322Z,9.27
2023-02-07T16:42:51.527Z,16.38
2023-02-07T16:45:22.452Z,14.00
2023-02-07T16:47:50.845Z,8.52
2023-02-07T16:50:21.875Z,9.05
2023-02-07T16:52:54.713Z,10.98
2023-02-07T16:55:22.980Z,11.90
2023-02-07T16:57:51.304Z,16.88
2023-02-07T17:00:22.677Z,10.60
2023-02-07T17:02:52.764Z,13.80
2023-02-07T17:05:22.960Z,8.45
2023-02-07T17:07:52.626Z,10.50
2023-02-07T17:10:25.111Z,10.07
2023-02-07T17:12:54.254Z,11.48
2023-02-07T17:15:23.119Z,12.60
2023-02-07T17:17:53.046Z,10.40
2023-02-07T17:20:25.594Z,8.38
2023-02-07T17:22:56.482Z,8.93
2023-02-07T17:25:29.268Z,10.30
2023-02-07T17:27:58.951Z,10.40
2023-02-07T17:30:30.224Z,17.00
2023-02-07T17:32:58.953Z,22.63
2023-02-07T17:35:28.753Z,19.38
2023-02-07T17:38:00.250Z,11.85
2023-02-07T17:40:31.563Z,11.20
2023-02-07T17:43:00.361Z,12.98
2023-02-07T17:45:30.441Z,12.02
2023-02-07T17:47:59.037Z,9.40
2023-02-07T17:50:31.513Z,17.05
2023-02-07T17:53:02.345Z,14.15
2023-02-07T17:55:32.336Z,10.52
2023-02-07T17:58:02.192Z,15.30
2023-02-07T18:00:33.626Z,13.38
2023-02-07T18:03:02.255Z,14.70
2023-02-07T18:05:31.823Z,13.10
2023-02-07T18:08:01.585Z,10.98
2023-02-07T18:10:33.114Z,18.65
2023-02-07T18:13:02.464Z,14.90
2023-02-07T18:15:31.294Z,13.63
2023-02-07T18:17:59.923Z,17.92
2023-02-07T18:20:33.700Z,14.15
2023-02-07T18:23:04.135Z,15.68
2023-02-07T18:25:32.759Z,12.57
2023-02-07T18:28:01.585Z,12.88
2023-02-07T18:30:31.058Z,14.95
2023-02-07T18:33:00.056Z,12.90
2023-02-07T18:35:28.731Z,11.70
2023-02-07T18:37:56.986Z,13.50
2023-02-07T18:40:26.935Z,17.27
2023-02-07T18:42:56.603Z,16.88
2023-02-07T18:45:25.724Z,14.13
2023-02-07T18:47:54.281Z,12.55
2023-02-07T18:50:23.364Z,15.27
2023-02-07T18:52:52.520Z,12.05
2023-02-07T18:55:21.388Z,11.38
2023-02-07T18:57:51.559Z,12.63
2023-02-07T19:00:21.286Z,13.20
2023-02-07T19:02:49.990Z,12.45
2023-02-07T19:05:18.635Z,13.85
2023-02-07T19:07:47.750Z,19.58
2023-02-07T19:10:17.099Z,13.23
2023-02-07T19:12:45.828Z,12.35
2023-02-07T19:15:16.103Z,15.63
2023-02-07T19:17:44.986Z,16.85
2023-02-07T19:20:13.756Z,13.98
2023-02-07T19:22:42.728Z,21.20
2023-02-07T19:25:11.270Z,19.02
2023-02-07T19:27:39.921Z,15.57
2023-02-07T19:30:10.014Z,16.95
2023-02-07T19:32:40.638Z,17.67
2023-02-07T19:35:09.626Z,18.35
2023-02-07T19:37:37.948Z,25.75
2023-02-07T19:40:07.589Z,18.00
2023-02-07T19:42:36.120Z,15.80
2023-02-07T19:45:04.966Z,19.67
2023-02-07T19:47:33.328Z,14.02
2023-02-07T19:50:06.109Z,15.50
2023-02-07T19:52:34.566Z,14.77
2023-02-07T19:55:02.991Z,21.67
2023-02-07T19:57:33.371Z,15.68
2023-02-07T20:00:01.960Z,15.82
2023-02-07T20:02:33.235Z,14.57
2023-02-07T20:05:03.119Z,14.25
2023-02-07T20:07:31.417Z,14.55
2023-02-07T20:10:01.011Z,16.52
2023-02-07T20:12:29.566Z,13.52
2023-02-07T20:14:57.934Z,14.23
2023-02-07T20:17:26.585Z,17.10
2023-02-07T20:19:54.963Z,16.85
2023-02-07T20:22:24.646Z,14.82
2023-02-07T20:24:55.250Z,15.82
2023-02-07T20:27:29.992Z,19.05
2023-02-07T20:29:58.794Z,14.23
2023-02-07T20:32:27.056Z,16.67
2023-02-07T20:34:55.469Z,14.98
2023-02-07T20:37:25.104Z,17.67
2023-02-07T20:39:53.432Z,19.88
2023-02-07T20:42:21.767Z,22.75
2023-02-07T20:44:50.087Z,17.23
2023-02-07T20:47:18.460Z,18.38
2023-02-07T20:49:46.741Z,46.53
2023-02-07T20:52:15.177Z,31.98
2023-02-07T20:54:45.163Z,27.63
2023-02-07T20:57:13.606Z,26.73
2023-02-07T20:59:42.737Z,29.10
2023-02-07T21:02:12.284Z,30.00
2023-02-07T21:04:41.826Z,26.10
2023-02-07T21:07:11.051Z,26.10
2023-02-07T21:09:39.965Z,31.75
2023-02-07T21:12:10.289Z,29.05
2023-02-07T21:14:38.666Z,42.50
2023-02-07T21:17:07.865Z,40.08
2023-02-07T21:19:37.744Z,25.88
2023-02-07T21:22:07.099Z,19.17
2023-02-07T21:24:35.703Z,20.02
2023-02-07T21:27:05.177Z,23.10
2023-02-07T21:29:36.563Z,19.70
2023-02-07T21:32:05.305Z,18.70
2023-02-07T21:34:33.779Z,18.90
2023-02-07T21:37:02.239Z,21.67
2023-02-07T21:39:30.674Z,19.17
2023-02-07T21:41:59.924Z,19.52
2023-02-07T21:44:29.714Z,21.08
2023-02-07T21:46:59.502Z,26.13
2023-02-07T21:49:27.842Z,22.98
2023-02-07T21:51:56.264Z,22.30
2023-02-07T21:54:24.787Z,20.83
2023-02-07T21:56:53.198Z,21.70
2023-02-07T21:59:22.797Z,29.50
2023-02-07T22:01:52.138Z,28.27
2023-02-07T22:04:22.368Z,21.67
2023-02-07T22:06:51.349Z,18.02
2023-02-07T22:09:22.495Z,19.63
2023-02-07T22:11:52.074Z,18.73
2023-02-07T22:14:21.494Z,20.95
2023-02-07T22:16:52.406Z,20.00
2023-02-07T22:19:22.944Z,20.88
2023-02-07T22:21:51.943Z,21.05
2023-02-07T22:24:21.780Z,19.67
2023-02-07T22:26:50.305Z,20.85
2023-02-07T22:29:18.572Z,21.25
2023-02-07T22:31:47.108Z,18.50
2023-02-07T22:34:16.415Z,20.48
2023-02-07T22:36:47.368Z,22.25
2023-02-07T22:39:18.211Z,19.42
2023-02-07T22:41:47.708Z,19.75
2023-02-07T22:44:16.185Z,20.30
2023-02-07T22:46:44.681Z,22.13
2023-02-07T22:49:13.025Z,22.70
2023-02-07T22:51:41.356Z,17.67
2023-02-07T22:54:18.296Z,18.40
2023-02-07T22:56:47.253Z,19.85
2023-02-07T22:59:15.940Z,17.70
2023-02-07T23:01:45.353Z,22.52
2023-02-07T23:04:17.576Z,18.30
2023-02-07T23:06:46.937Z,21.33
2023-02-07T23:09:17.207Z,21.13
2023-02-07T23:11:45.908Z,21.15
2023-02-07T23:14:16.493Z,21.25
2023-02-07T23:16:44.838Z,92.90
2023-02-07T23:19:16.299Z,46.55
2023-02-07T23:21:45.570Z,25.55
2023-02-07T23:24:14.295Z,20.27
2023-02-07T23:26:44.220Z,25.73
2023-02-07T23:29:12.533Z,21.90
2023-02-07T23:31:40.854Z,22.30
2023-02-07T23:34:10.214Z,19.75
2023-02-07T23:36:39.708Z,19.08
2023-02-07T23:39:08.471Z,17.08
2023-02-07T23:41:37.561Z,19.25
2023-02-07T23:44:07.342Z,19.08
2023-02-07T23:46:36.249Z,20.13
2023-02-07T23:49:05.296Z,17.65
2023-02-07T23:51:33.845Z,15.85
2023-02-07T23:54:02.884Z,17.10
2023-02-07T23:56:31.434Z,19.95
2023-02-07T23:58:59.839Z,17.33
